Terminal Aerodrome Forecast
Issued by NWS

Home | Current Version | Previous Version | Text Only | Print | Product List | Glossary On
Versions: 1 2 3 4 5 6 7 8 9 10 11 12 13
000
FTUS42 KMLB 271734
TAFLEE
TAF
KLEE 271734Z 2718/2818 25004KT P6SM SCT035
     FM271900 27006KT P6SM VCSH SCT040
     FM280000 24004KT P6SM FEW040 SCT250
     FM280400 22003KT P6SM FEW250
     FM281400 23005KT P6SM SCT025=

USA.gov is the U.S. government's official web portal to all federal, state and local government web resources and services.